Time;durP1;ratioP1;P1;durP2;ratioP2;P2;SDS_P1;SDS_P2;PMS_P1;PMS_P2;Temp;Humidity;BMP_temperature;BMP_pressure;BME280_temperature;BME280_humidity;BME280_pressure;Samples;Min_cycle;Max_cycle;Signal;HPM_P1;HPM_P2
2022/11/05 00:10:50;;;;;;;7.60;4.05;;;;;;;13.04;65.38;96960.69;4935124;28;20173;-76
2022/11/05 00:19:05;;;;;;;7.00;4.50;;;;;;;13.13;65.75;96965.38;4942977;28;20027;-77
2022/11/05 00:26:57;;;;;;;7.53;4.00;;;;;;;13.13;65.14;96968.75;4964275;28;20039;-77
2022/11/05 00:29:22;;;;;;;4.95;3.65;;;;;;;13.12;65.78;96972.41;4936670;29;20395;-77
2022/11/05 00:31:47;;;;;;;6.05;3.92;;;;;;;13.13;65.38;96974.00;4952412;29;20171;-77
2022/11/05 00:34:13;;;;;;;4.68;3.17;;;;;;;13.14;65.29;96975.53;4936519;29;20028;-77
2022/11/05 00:36:38;;;;;;;5.30;3.13;;;;;;;13.19;64.93;96977.38;4950938;29;20035;-77
2022/11/05 00:39:04;;;;;;;4.57;3.50;;;;;;;13.21;65.13;96985.72;4953695;28;20043;-76
2022/11/05 00:41:30;;;;;;;4.68;3.55;;;;;;;13.20;65.15;96984.94;4952621;29;20032;-77
2022/11/05 00:46:39;;;;;;;4.82;3.03;;;;;;;13.15;65.19;96992.81;4948984;28;20502;-77
2022/11/05 00:52:54;;;;;;;6.82;3.85;;;;;;;13.16;64.84;96991.75;4938836;29;20034;-77
2022/11/05 00:54:33;;;;;;;4.68;3.33;;;;;;;13.17;64.66;96995.16;4952596;29;20043;-76
2022/11/05 00:56:59;;;;;;;4.38;3.03;;;;;;;13.11;65.25;96999.63;4951496;29;20245;-76
2022/11/05 00:59:24;;;;;;;6.38;3.35;;;;;;;13.07;65.46;96994.13;4936569;29;20110;-76
2022/11/05 01:01:49;;;;;;;4.30;3.58;;;;;;;13.09;64.81;96997.25;4952409;29;20542;-76
2022/11/05 01:04:14;;;;;;;3.50;2.72;;;;;;;13.09;64.83;97004.31;4934975;29;20042;-77
2022/11/05 01:06:40;;;;;;;4.97;3.63;;;;;;;13.06;65.23;97000.41;4951581;29;20046;-77
2022/11/05 01:09:05;;;;;;;5.72;3.25;;;;;;;13.04;65.03;97001.69;4952740;29;20340;-77
2022/11/05 01:11:34;;;;;;;3.83;2.58;;;;;;;13.03;65.20;97008.00;4920103;29;20035;-77
2022/11/05 01:14:00;;;;;;;5.85;3.17;;;;;;;13.08;65.18;97010.59;4935125;29;20395;-76
2022/11/05 01:16:25;;;;;;;4.25;3.60;;;;;;;13.01;65.25;97012.69;4935259;29;20093;-76
2022/11/05 01:18:50;;;;;;;5.70;2.80;;;;;;;13.05;65.06;97021.56;4918201;29;20031;-76
2022/11/05 01:21:16;;;;;;;4.95;3.30;;;;;;;13.07;65.34;97022.88;4962708;28;20040;-76
2022/11/05 01:23:41;;;;;;;5.05;3.13;;;;;;;13.11;64.92;97023.13;4950729;29;20047;-77
2022/11/05 01:26:06;;;;;;;5.13;3.28;;;;;;;13.11;64.79;97026.53;4935100;29;20046;-77
2022/11/05 01:28:32;;;;;;;4.40;3.17;;;;;;;13.03;64.64;97021.84;4952462;29;20028;-76
2022/11/05 01:30:57;;;;;;;4.75;2.90;;;;;;;13.05;65.00;97026.78;4951560;29;20023;-76
2022/11/05 01:33:23;;;;;;;4.63;3.15;;;;;;;13.02;64.92;97030.72;4934748;29;20035;-77
2022/11/05 01:35:50;;;;;;;5.22;3.42;;;;;;;12.93;65.42;97038.28;4964298;28;20066;-76
2022/11/05 01:38:17;;;;;;;5.45;3.00;;;;;;;13.02;64.80;97038.56;4950934;28;20031;-77
2022/11/05 01:40:42;;;;;;;4.38;3.67;;;;;;;12.94;65.23;97041.72;4951333;29;20114;-77
2022/11/05 01:43:15;;;;;;;4.47;3.40;;;;;;;13.01;65.43;97036.22;4951296;29;20482;-77
2022/11/05 01:45:40;;;;;;;5.88;3.63;;;;;;;12.92;65.21;97047.19;4930611;29;20031;-77
2022/11/05 01:48:10;;;;;;;5.90;3.30;;;;;;;13.07;65.25;97043.81;4915084;29;20082;-76
2022/11/05 01:50:41;;;;;;;6.70;3.92;;;;;;;13.10;65.08;97052.94;4952311;29;20027;-77
2022/11/05 01:53:30;;;;;;;5.82;3.75;;;;;;;13.10;64.79;97058.16;4951666;29;20396;-76
2022/11/05 01:56:03;;;;;;;6.07;3.75;;;;;;;12.83;65.24;97051.38;4952219;29;20035;-77
2022/11/05 01:58:34;;;;;;;5.40;3.80;;;;;;;12.50;65.53;97055.28;4907356;29;20054;-77
2022/11/05 02:01:00;;;;;;;5.10;3.35;;;;;;;12.77;64.34;97062.09;4938929;29;20637;-78
2022/11/05 02:03:25;;;;;;;4.93;3.33;;;;;;;12.30;65.59;97066.44;4916152;29;20031;-77
2022/11/05 02:05:51;;;;;;;6.40;3.35;;;;;;;12.43;64.78;97065.97;4966326;28;20038;-77
2022/11/05 02:08:26;;;;;;;4.72;2.90;;;;;;;12.42;65.45;97068.84;4949996;29;20035;-78
2022/11/05 02:10:51;;;;;;;3.00;2.23;;;;;;;12.38;65.37;97076.41;4950047;29;20521;-78
2022/11/05 02:13:16;;;;;;;4.15;2.60;;;;;;;12.39;65.21;97080.59;4950045;29;20034;-77
2022/11/05 02:15:50;;;;;;;3.97;2.47;;;;;;;12.33;65.46;97079.00;4950400;29;20035;-78
2022/11/05 02:18:26;;;;;;;5.38;3.00;;;;;;;12.19;65.55;97081.31;4950405;29;20105;-77
2022/11/05 02:21:13;;;;;;;6.85;3.53;;;;;;;12.39;65.28;97087.63;4947304;29;20044;-78
2022/11/05 02:24:05;;;;;;;6.07;3.20;;;;;;;12.47;65.25;97093.13;4945740;29;20090;-78
2022/11/05 02:26:47;;;;;;;5.65;3.03;;;;;;;12.55;64.73;97087.41;4934077;29;20062;-78
2022/11/05 02:29:47;;;;;;;7.68;3.10;;;;;;;12.60;64.89;97088.47;4933145;29;20376;-77
2022/11/05 02:32:31;;;;;;;6.82;2.65;;;;;;;12.27;65.25;97090.47;4933505;29;20057;-77
2022/11/05 02:35:11;;;;;;;5.45;2.97;;;;;;;12.38;65.35;97086.84;4951080;29;20110;-77
2022/11/05 02:37:45;;;;;;;4.32;3.00;;;;;;;12.41;65.37;97094.16;4949352;29;20071;-77
2022/11/05 02:40:34;;;;;;;4.75;2.63;;;;;;;12.50;64.69;97097.06;4934306;29;20027;-77
2022/11/05 02:43:23;;;;;;;3.38;2.40;;;;;;;12.45;65.14;97105.66;4934259;29;20031;-78
2022/11/05 02:46:04;;;;;;;5.18;2.67;;;;;;;12.43;65.23;97107.75;4928467;29;20373;-77
2022/11/05 02:48:39;;;;;;;4.78;3.13;;;;;;;12.42;64.74;97103.56;4913599;29;20035;-77
2022/11/05 02:51:29;;;;;;;4.72;2.63;;;;;;;12.50;64.76;97108.28;4949196;28;20042;-77
2022/11/05 02:54:08;;;;;;;7.75;3.33;;;;;;;12.55;64.89;97107.50;4949777;29;20585;-78
2022/11/05 02:56:36;;;;;;;6.25;2.75;;;;;;;12.41;64.70;97104.63;4949676;29;20483;-77
2022/11/05 02:59:01;;;;;;;3.53;2.25;;;;;;;12.35;65.68;97105.63;4950182;29;20050;-77
2022/11/05 03:01:26;;;;;;;5.53;2.78;;;;;;;12.40;65.03;97107.47;4949844;29;20055;-77
2022/11/05 03:03:54;;;;;;;6.50;2.42;;;;;;;12.44;65.45;97117.16;4918046;29;20035;-77
2022/11/05 03:07:07;;;;;;;4.25;2.33;;;;;;;12.60;64.48;97111.97;4948989;29;20126;-77
2022/11/05 03:10:07;;;;;;;3.65;2.30;;;;;;;12.55;64.44;97121.34;4946116;29;20059;-77
2022/11/05 03:12:39;;;;;;;4.00;2.20;;;;;;;12.40;65.09;97118.69;4965994;28;20085;-77
2022/11/05 03:15:33;;;;;;;4.10;2.42;;;;;;;12.55;64.00;97121.34;4918215;29;20031;-78
2022/11/05 03:18:16;;;;;;;4.80;2.17;;;;;;;12.36;64.69;97122.88;4949087;29;20031;-77
2022/11/05 03:20:53;;;;;;;4.55;2.33;;;;;;;12.43;64.28;97131.25;4933690;29;20118;-78
2022/11/05 03:23:35;;;;;;;3.35;1.70;;;;;;;12.44;63.74;97132.03;4948954;29;20036;-77
2022/11/05 03:26:11;;;;;;;4.35;2.10;;;;;;;12.37;64.34;97129.66;4964545;28;20549;-78
2022/11/05 03:28:39;;;;;;;3.72;1.98;;;;;;;12.30;63.63;97144.78;4949304;29;20046;-77
2022/11/05 03:31:06;;;;;;;2.92;2.00;;;;;;;12.12;64.68;97140.81;4948893;29;20111;-78
2022/11/05 03:33:33;;;;;;;3.25;1.58;;;;;;;12.10;64.35;97143.66;4949628;29;20534;-78
2022/11/05 03:36:02;;;;;;;3.00;1.60;;;;;;;12.08;64.31;97134.50;4948709;29;20039;-78
2022/11/05 03:38:31;;;;;;;2.22;1.45;;;;;;;12.12;64.46;97144.19;4965249;28;20159;-78
2022/11/05 03:40:59;;;;;;;3.10;1.50;;;;;;;12.13;64.16;97144.97;4916071;29;20039;-77
2022/11/05 03:43:28;;;;;;;2.92;1.40;;;;;;;12.11;64.42;97145.22;4944094;29;20510;-78
2022/11/05 03:46:00;;;;;;;5.10;1.60;;;;;;;12.12;64.24;97144.19;4929604;29;20035;-78
2022/11/05 03:48:26;;;;;;;3.75;1.58;;;;;;;12.04;64.28;97152.50;4949027;29;20495;-78
2022/11/05 03:50:58;;;;;;;3.90;1.63;;;;;;;12.05;64.94;97166.34;4932964;29;20082;-78
2022/11/05 03:53:26;;;;;;;3.42;1.60;;;;;;;12.09;64.29;97167.41;4948922;29;20070;-78
2022/11/05 03:56:00;;;;;;;3.17;1.48;;;;;;;12.18;64.08;97168.47;4933187;29;20027;-78
2022/11/05 03:58:26;;;;;;;3.65;1.27;;;;;;;12.02;63.94;97170.25;4950016;29;20050;-78
2022/11/05 04:00:52;;;;;;;1.85;1.20;;;;;;;11.94;64.40;97175.94;4949342;29;20035;-78
2022/11/05 04:03:17;;;;;;;2.67;1.20;;;;;;;11.94;63.22;97168.09;4951186;28;20093;-77
2022/11/05 04:05:42;;;;;;;2.45;1.17;;;;;;;12.00;63.95;97180.16;4920759;29;20043;-78
2022/11/05 04:13:36;;;;;;;1.95;1.50;;;;;;;11.84;64.54;97170.63;4949074;29;20031;-77
2022/11/05 04:18:45;;;;;;;2.10;1.27;;;;;;;11.76;64.50;97172.66;4966469;28;20507;-77
2022/11/05 04:24:07;;;;;;;2.50;1.48;;;;;;;11.80;64.69;97173.72;4953448;28;20049;-77
2022/11/05 04:26:33;;;;;;;1.38;0.93;;;;;;;11.80;64.69;97180.78;4952309;29;20039;-77
2022/11/05 04:31:42;;;;;;;2.20;1.25;;;;;;;11.81;64.50;97180.53;4968654;28;20023;-77
2022/11/05 04:34:07;;;;;;;4.70;1.63;;;;;;;11.78;64.45;97175.03;4953353;29;20035;-77
2022/11/05 04:36:33;;;;;;;3.60;1.50;;;;;;;11.78;64.61;97180.25;4952251;29;20035;-77
2022/11/05 04:38:58;;;;;;;2.05;1.25;;;;;;;11.75;64.85;97186.75;4937883;29;20073;-77
2022/11/05 04:41:24;;;;;;;2.33;1.42;;;;;;;11.79;64.58;97181.84;4967901;28;20035;-77
2022/11/05 04:43:49;;;;;;;3.10;1.30;;;;;;;11.79;64.64;97189.66;4952108;28;20122;-78
2022/11/05 04:46:14;;;;;;;3.15;1.40;;;;;;;11.77;64.41;97187.28;4931165;29;20046;-77
2022/11/05 04:48:40;;;;;;;3.33;1.15;;;;;;;11.73;64.81;97188.81;4936030;29;20070;-77
2022/11/05 04:51:05;;;;;;;2.25;1.33;;;;;;;11.72;64.55;97189.88;4951958;29;20035;-77
2022/11/05 04:53:31;;;;;;;2.70;1.30;;;;;;;11.75;64.68;97199.00;4935993;29;20177;-77
2022/11/05 04:56:13;;;;;;;1.65;1.13;;;;;;;11.90;64.22;97193.09;4951326;29;20046;-77
2022/11/05 04:58:40;;;;;;;3.38;1.27;;;;;;;11.84;64.41;97197.50;4935279;29;20035;-77
2022/11/05 05:01:10;;;;;;;2.22;1.20;;;;;;;11.85;64.49;97195.69;4968004;28;20039;-77
2022/11/05 05:03:35;;;;;;;3.28;1.60;;;;;;;11.83;64.66;97192.53;4952148;29;20097;-77
2022/11/05 05:06:00;;;;;;;2.45;1.20;;;;;;;11.84;64.46;97200.13;4936019;29;20422;-77
2022/11/05 05:08:26;;;;;;;2.00;1.10;;;;;;;11.85;64.06;97204.28;4951174;29;20043;-77
2022/11/05 05:10:51;;;;;;;2.60;1.00;;;;;;;11.78;64.61;97206.34;4935653;29;20093;-77
2022/11/05 05:13:16;;;;;;;2.03;1.10;;;;;;;11.76;64.70;97209.19;4950259;28;20039;-77
2022/11/05 05:15:42;;;;;;;3.25;1.38;;;;;;;11.76;64.15;97219.63;4951132;29;20487;-77
2022/11/05 05:18:08;;;;;;;2.33;1.42;;;;;;;11.80;64.53;97225.91;4951250;29;20115;-77
2022/11/05 05:23:17;;;;;;;2.30;1.38;;;;;;;11.80;64.45;97228.50;4937193;29;20093;-77
2022/11/05 05:25:42;;;;;;;3.17;1.40;;;;;;;11.77;64.15;97234.25;4935402;29;20050;-77
2022/11/05 05:28:08;;;;;;;2.38;1.20;;;;;;;11.79;64.20;97229.56;4951388;29;20383;-77
2022/11/05 05:30:33;;;;;;;2.50;1.35;;;;;;;11.81;64.62;97234.53;4951599;29;20499;-77
2022/11/05 05:33:01;;;;;;;2.03;1.23;;;;;;;11.82;64.17;97246.53;4953082;29;20467;-76
2022/11/05 05:35:26;;;;;;;2.53;1.00;;;;;;;11.84;63.60;97241.06;4935210;29;20043;-77
2022/11/05 05:37:55;;;;;;;1.95;1.10;;;;;;;11.85;63.63;97242.66;4950640;29;20399;-77
2022/11/05 05:40:21;;;;;;;2.10;1.10;;;;;;;11.74;64.08;97245.19;4951066;29;20340;-77
2022/11/05 05:42:46;;;;;;;2.38;0.98;;;;;;;11.79;64.41;97253.03;4945529;29;20035;-77
2022/11/05 05:45:12;;;;;;;2.60;1.15;;;;;;;11.83;64.52;97255.16;4947591;28;20031;-77
2022/11/05 05:47:37;;;;;;;3.00;1.25;;;;;;;11.81;64.06;97252.78;4934832;29;20042;-77
2022/11/05 05:50:03;;;;;;;1.70;0.90;;;;;;;11.82;63.96;97254.34;4951989;29;20487;-77
2022/11/05 05:52:28;;;;;;;2.78;1.15;;;;;;;11.73;64.58;97258.47;4950650;29;20036;-76
2022/11/05 05:54:53;;;;;;;3.38;1.13;;;;;;;11.70;64.93;97257.13;4934321;29;20066;-77
2022/11/05 05:57:19;;;;;;;3.17;1.50;;;;;;;11.73;64.87;97264.47;4951029;29;20143;-77
2022/11/05 05:59:44;;;;;;;3.03;1.10;;;;;;;11.74;65.19;97263.44;4950294;29;20117;-77
2022/11/05 06:02:11;;;;;;;2.78;1.10;;;;;;;11.74;65.07;97260.81;4934054;29;20122;-77
2022/11/05 06:04:36;;;;;;;3.72;1.42;;;;;;;11.76;65.00;97271.00;4945924;29;20032;-77
2022/11/05 06:07:02;;;;;;;2.45;1.48;;;;;;;11.70;64.68;97272.78;4949239;29;20099;-77
2022/11/05 06:09:27;;;;;;;3.83;1.30;;;;;;;11.69;64.66;97268.63;4949499;29;20043;-77
2022/11/05 06:11:53;;;;;;;2.63;1.05;;;;;;;11.70;65.43;97280.59;4950542;29;20110;-77
2022/11/05 06:14:18;;;;;;;2.10;1.20;;;;;;;11.61;64.93;97277.66;4964620;28;20031;-77
2022/11/05 06:16:43;;;;;;;2.17;1.35;;;;;;;11.70;64.84;97283.22;4946105;29;20027;-77
2022/11/05 06:19:09;;;;;;;3.17;1.65;;;;;;;11.62;64.66;97275.88;4950745;29;20047;-76
2022/11/05 06:21:34;;;;;;;4.20;1.50;;;;;;;11.61;64.88;97279.50;4959509;28;20035;-77
2022/11/05 06:24:01;;;;;;;3.22;1.38;;;;;;;11.59;64.58;97286.78;4964826;28;20434;-77
2022/11/05 06:26:26;;;;;;;2.65;1.55;;;;;;;11.50;65.11;97286.44;4916704;29;20038;-77
2022/11/05 06:28:51;;;;;;;3.05;1.52;;;;;;;11.54;65.05;97282.31;4948729;29;20118;-77
2022/11/05 06:31:17;;;;;;;3.47;2.13;;;;;;;11.58;64.88;97290.41;4950516;28;20066;-77
2022/11/05 06:33:42;;;;;;;2.85;1.48;;;;;;;11.51;64.42;97295.81;4948465;29;20048;-76
2022/11/05 06:36:13;;;;;;;5.97;1.70;;;;;;;11.52;64.74;97299.25;4948815;29;20039;-76
2022/11/05 06:38:38;;;;;;;2.67;1.60;;;;;;;11.43;64.79;97304.13;4948850;29;20031;-77
2022/11/05 06:41:04;;;;;;;3.80;1.52;;;;;;;11.36;64.73;97306.09;4933267;29;20550;-77
2022/11/05 06:43:29;;;;;;;3.28;1.35;;;;;;;11.33;64.09;97317.06;4948328;29;20038;-77
2022/11/05 06:45:55;;;;;;;2.67;1.52;;;;;;;11.21;64.43;97319.78;4944572;28;20035;-77
2022/11/05 06:48:21;;;;;;;2.45;1.25;;;;;;;11.11;64.68;97327.50;4949721;29;20495;-77
2022/11/05 06:50:46;;;;;;;2.78;1.38;;;;;;;11.05;64.36;97329.25;4965520;28;20039;-77
2022/11/05 06:53:12;;;;;;;2.92;1.20;;;;;;;11.03;64.78;97334.69;4949053;29;20042;-77
2022/11/05 06:55:38;;;;;;;4.07;1.50;;;;;;;10.98;64.82;97341.66;4949520;29;20067;-76
2022/11/05 06:58:03;;;;;;;2.17;1.50;;;;;;;10.98;64.94;97342.44;4949991;29;20023;-77
2022/11/05 07:00:29;;;;;;;3.33;1.50;;;;;;;10.99;65.36;97343.25;4966209;28;20162;-77
2022/11/05 07:02:55;;;;;;;3.05;1.58;;;;;;;11.04;65.05;97349.31;4949789;29;20086;-77
2022/11/05 07:05:21;;;;;;;6.25;2.10;;;;;;;11.05;65.54;97348.28;4933644;29;20027;-77
2022/11/05 07:07:46;;;;;;;4.70;2.00;;;;;;;11.09;65.12;97353.00;4949904;29;20042;-77
2022/11/05 07:10:16;;;;;;;2.03;1.40;;;;;;;11.14;64.75;97358.25;4948712;29;20023;-77
2022/11/05 07:12:42;;;;;;;2.08;1.33;;;;;;;11.04;64.75;97359.72;4933440;29;20507;-77
2022/11/05 07:15:09;;;;;;;2.60;1.38;;;;;;;10.99;64.70;97367.47;4932544;29;20031;-76
2022/11/05 07:17:34;;;;;;;2.03;1.30;;;;;;;11.02;64.81;97368.81;4949821;28;20027;-77
2022/11/05 07:20:00;;;;;;;1.83;1.17;;;;;;;10.99;65.06;97374.50;4933833;29;20090;-77
2022/11/05 07:22:25;;;;;;;2.75;1.83;;;;;;;11.01;65.14;97375.84;4933299;29;20103;-77
2022/11/05 07:24:50;;;;;;;5.82;3.00;;;;;;;11.06;65.06;97378.50;4949456;29;20090;-77
2022/11/05 07:27:16;;;;;;;5.82;3.22;;;;;;;11.08;65.34;97375.66;4965523;28;20051;-77
2022/11/05 07:29:41;;;;;;;5.07;2.78;;;;;;;11.05;65.18;97376.94;4948022;29;20035;-77
2022/11/05 07:32:07;;;;;;;4.70;2.50;;;;;;;11.11;65.31;97387.44;4965557;28;20035;-77
2022/11/05 07:34:32;;;;;;;5.88;2.60;;;;;;;11.17;64.91;97386.44;4933571;29;20372;-76
2022/11/05 07:36:59;;;;;;;4.43;3.15;;;;;;;11.21;64.71;97383.13;4948190;28;20572;-77
2022/11/05 07:39:24;;;;;;;3.88;2.50;;;;;;;11.25;64.55;97391.25;4948903;29;20117;-77
2022/11/05 07:41:53;;;;;;;3.15;1.90;;;;;;;11.48;64.38;97392.81;4949793;29;20035;-77
2022/11/05 07:44:19;;;;;;;3.17;2.08;;;;;;;11.51;63.90;97386.31;4950150;29;20046;-77
2022/11/05 07:46:45;;;;;;;3.97;1.92;;;;;;;11.46;64.16;97389.66;4945103;28;20110;-77
2022/11/05 07:49:10;;;;;;;5.72;2.85;;;;;;;11.47;63.93;97398.28;4944479;29;20142;-77
2022/11/05 07:51:35;;;;;;;5.05;2.60;;;;;;;11.54;64.13;97398.88;4948872;29;20121;-76
2022/11/05 07:54:01;;;;;;;4.85;3.33;;;;;;;11.56;64.20;97396.81;4932664;29;20039;-77
2022/11/05 07:56:26;;;;;;;4.60;2.75;;;;;;;11.61;64.46;97404.69;4948679;29;20438;-77
2022/11/05 07:58:51;;;;;;;5.47;2.88;;;;;;;11.67;63.75;97403.72;4948958;29;20039;-77
2022/11/05 08:01:17;;;;;;;3.67;2.42;;;;;;;11.57;64.04;97403.59;4933169;29;20035;-77
2022/11/05 08:03:42;;;;;;;4.45;2.65;;;;;;;11.62;64.38;97406.25;4948955;29;20035;-77
2022/11/05 08:06:07;;;;;;;5.03;3.00;;;;;;;11.58;64.48;97399.94;4949163;29;20089;-77
2022/11/05 08:08:33;;;;;;;5.78;3.20;;;;;;;11.48;64.93;97415.47;4947505;29;20027;-77
2022/11/05 08:11:07;;;;;;;4.20;2.35;;;;;;;11.61;64.66;97408.06;4964877;28;20510;-76
2022/11/05 08:13:33;;;;;;;5.20;2.72;;;;;;;11.56;65.10;97404.63;4932466;29;20042;-78
2022/11/05 08:16:00;;;;;;;4.97;2.65;;;;;;;11.64;64.68;97416.44;4973975;28;20033;-76
2022/11/05 08:18:30;;;;;;;6.43;3.63;;;;;;;11.75;64.58;97421.50;4948829;29;20031;-77
2022/11/05 08:20:59;;;;;;;4.20;2.53;;;;;;;11.77;64.70;97419.47;4932236;29;20098;-77
2022/11/05 08:23:26;;;;;;;6.35;2.95;;;;;;;11.76;64.72;97419.72;4928219;28;20365;-77
2022/11/05 08:25:51;;;;;;;6.25;3.20;;;;;;;11.86;64.89;97419.81;4926993;29;20042;-77
2022/11/05 08:28:18;;;;;;;6.28;3.00;;;;;;;11.99;64.97;97421.25;4973853;28;20607;-77
2022/11/05 08:30:47;;;;;;;6.22;3.28;;;;;;;12.14;64.93;97426.59;4964039;28;20035;-77
2022/11/05 08:33:13;;;;;;;4.45;2.88;;;;;;;12.12;64.99;97431.28;4963814;28;20073;-77
2022/11/05 08:35:38;;;;;;;5.78;3.33;;;;;;;12.22;64.74;97442.84;4931157;29;20070;-77
2022/11/05 08:38:05;;;;;;;5.55;3.30;;;;;;;12.28;65.17;97441.88;4947794;29;20042;-77
2022/11/05 08:40:32;;;;;;;6.10;2.92;;;;;;;12.31;64.99;97444.00;4947756;29;20098;-77
2022/11/05 08:42:58;;;;;;;6.85;3.90;;;;;;;12.42;64.40;97445.63;4963905;28;20550;-77
2022/11/05 08:45:25;;;;;;;5.88;3.50;;;;;;;12.48;64.08;97452.47;4961262;28;20070;-77
2022/11/05 08:48:03;;;;;;;5.65;3.58;;;;;;;12.65;64.04;97451.56;4922387;28;20137;-77
2022/11/05 08:50:29;;;;;;;5.72;4.20;;;;;;;12.65;64.12;97454.19;4948136;29;20035;-77
2022/11/05 08:52:54;;;;;;;5.65;3.03;;;;;;;12.60;63.77;97456.75;4967284;28;20439;-77
2022/11/05 08:55:20;;;;;;;7.18;4.07;;;;;;;12.45;63.50;97454.81;4949867;29;20057;-78
2022/11/05 08:57:45;;;;;;;6.90;3.45;;;;;;;12.55;64.25;97458.28;4951447;29;20531;-78
2022/11/05 09:00:12;;;;;;;8.02;4.32;;;;;;;12.77;63.30;97460.00;4934340;29;20037;-78
2022/11/05 09:02:37;;;;;;;6.28;3.97;;;;;;;12.92;63.50;97460.13;4934197;29;20034;-77
2022/11/05 09:05:03;;;;;;;7.88;4.35;;;;;;;12.87;62.13;97467.13;4949851;29;20546;-77
2022/11/05 09:07:28;;;;;;;5.63;3.63;;;;;;;12.85;63.13;97463.97;4950318;29;20047;-77
2022/11/05 09:09:53;;;;;;;5.40;3.30;;;;;;;12.80;63.46;97467.34;4944945;28;20038;-78
2022/11/05 09:12:19;;;;;;;8.10;3.97;;;;;;;12.73;63.65;97472.78;4944979;28;20130;-77
2022/11/05 09:14:44;;;;;;;7.45;4.53;;;;;;;12.49;64.54;97477.56;4951243;29;20031;-77
2022/11/05 09:17:18;;;;;;;7.10;4.35;;;;;;;12.80;63.58;97477.81;4948948;29;20039;-77
2022/11/05 09:19:43;;;;;;;7.45;4.75;;;;;;;12.82;63.01;97483.56;4933719;29;20414;-77
2022/11/05 09:22:11;;;;;;;8.27;4.55;;;;;;;12.79;62.60;97486.66;4933782;29;20040;-77
2022/11/05 09:24:38;;;;;;;7.28;4.97;;;;;;;12.76;62.13;97481.94;4931305;29;20089;-77
2022/11/05 09:27:03;;;;;;;7.30;4.55;;;;;;;12.72;61.90;97484.25;4964220;28;20043;-78
2022/11/05 09:29:28;;;;;;;10.07;5.03;;;;;;;12.59;62.16;97483.91;4950265;29;20039;-78
2022/11/05 09:31:54;;;;;;;7.90;4.53;;;;;;;12.57;62.03;97491.97;4934274;29;20203;-78
2022/11/05 09:34:19;;;;;;;7.10;4.40;;;;;;;12.50;62.54;97486.97;4948943;29;20030;-77
2022/11/05 09:36:44;;;;;;;6.95;3.92;;;;;;;12.50;63.02;97484.34;4932774;29;20035;-76
2022/11/05 09:39:09;;;;;;;9.82;5.18;;;;;;;12.54;62.69;97490.66;4946296;28;20035;-77
2022/11/05 09:41:37;;;;;;;8.95;4.70;;;;;;;12.63;62.87;97493.63;4945693;29;20331;-76
2022/11/05 09:44:08;;;;;;;6.65;4.78;;;;;;;12.65;62.58;97491.53;4949751;29;20323;-77
2022/11/05 09:46:45;;;;;;;9.25;4.82;;;;;;;12.80;62.29;97496.09;4940520;28;20028;-76
2022/11/05 09:49:23;;;;;;;9.82;5.38;;;;;;;12.69;62.45;97497.81;4932039;29;20034;-77
2022/11/05 09:51:48;;;;;;;8.35;5.70;;;;;;;12.65;62.50;97506.44;4938343;29;20090;-77
2022/11/05 09:54:14;;;;;;;6.82;4.63;;;;;;;12.72;62.86;97505.16;4949708;29;20039;-77
2022/11/05 09:56:40;;;;;;;8.20;4.88;;;;;;;12.75;62.76;97511.75;4947546;29;20042;-77
2022/11/05 09:59:23;;;;;;;8.68;5.75;;;;;;;12.86;62.10;97510.75;4931723;28;20075;-77
2022/11/05 10:01:51;;;;;;;9.63;5.88;;;;;;;12.64;62.67;97513.47;4978440;28;20713;-77
2022/11/05 10:04:21;;;;;;;7.85;5.70;;;;;;;12.41;63.29;97519.81;4977077;28;20031;-77
2022/11/05 10:07:01;;;;;;;9.48;5.57;;;;;;;12.94;63.62;97525.19;4965319;28;20413;-77
2022/11/05 10:09:35;;;;;;;8.00;4.85;;;;;;;13.00;62.72;97528.63;4947214;29;20031;-77
2022/11/05 10:12:07;;;;;;;8.20;5.18;;;;;;;13.29;63.44;97523.84;4942357;29;20031;-77
2022/11/05 10:14:38;;;;;;;8.25;4.93;;;;;;;12.96;61.92;97525.72;4932524;29;20089;-77
2022/11/05 10:17:08;;;;;;;6.65;4.28;;;;;;;12.90;62.63;97526.72;4947375;29;20042;-77
2022/11/05 10:19:46;;;;;;;6.43;4.57;;;;;;;13.09;62.77;97527.13;4948461;29;20460;-77
2022/11/05 10:22:17;;;;;;;9.13;5.60;;;;;;;13.34;62.57;97531.75;4948661;29;20487;-78
2022/11/05 10:24:46;;;;;;;8.75;5.00;;;;;;;13.55;62.25;97526.63;4946066;29;20043;-77
2022/11/05 10:27:16;;;;;;;9.15;4.82;;;;;;;13.78;61.72;97528.06;4929350;29;20043;-78
2022/11/05 10:29:42;;;;;;;7.97;4.22;;;;;;;13.68;61.48;97534.78;4947619;29;20525;-77
2022/11/05 10:32:09;;;;;;;5.75;3.78;;;;;;;13.97;62.00;97531.78;4929004;29;20038;-76
2022/11/05 10:34:37;;;;;;;7.45;4.03;;;;;;;13.93;61.50;97533.34;4947225;29;20396;-78
2022/11/05 10:37:03;;;;;;;6.47;4.43;;;;;;;14.13;60.01;97529.97;4931129;29;20027;-78
2022/11/05 10:39:29;;;;;;;6.25;3.78;;;;;;;14.26;59.22;97528.72;4932068;29;20557;-77
2022/11/05 10:42:39;;;;;;;9.15;4.30;;;;;;;14.25;58.09;97529.75;4959289;28;20122;-77
2022/11/05 10:45:23;;;;;;;6.65;3.70;;;;;;;14.15;57.89;97532.34;4945950;28;20118;-79
2022/11/05 10:48:00;;;;;;;6.07;3.70;;;;;;;13.93;58.90;97541.19;4947887;29;20039;-78
2022/11/05 10:50:28;;;;;;;6.85;4.32;;;;;;;13.63;59.82;97541.84;4947710;29;20031;-77
2022/11/05 10:53:02;;;;;;;6.95;4.65;;;;;;;13.42;59.96;97540.97;4964196;28;20047;-78
2022/11/05 10:55:35;;;;;;;7.38;4.05;;;;;;;13.39;59.33;97541.47;4944640;29;20070;-77
2022/11/05 10:58:16;;;;;;;5.25;3.90;;;;;;;13.41;59.58;97548.00;4932664;29;20035;-78
2022/11/05 11:00:43;;;;;;;4.78;3.75;;;;;;;13.11;60.22;97548.59;4949399;28;20058;-78
2022/11/05 11:03:30;;;;;;;7.30;4.53;;;;;;;13.23;60.51;97540.53;4931913;29;20043;-77
2022/11/05 11:06:00;;;;;;;5.78;3.80;;;;;;;13.27;60.99;97550.25;4932109;29;20161;-78
2022/11/05 11:08:26;;;;;;;6.28;4.75;;;;;;;13.14;59.35;97545.44;4948918;29;20035;-77
2022/11/05 11:10:54;;;;;;;7.68;4.65;;;;;;;13.12;59.55;97547.53;4933550;29;20062;-77
2022/11/05 11:13:25;;;;;;;7.82;4.78;;;;;;;13.15;58.69;97549.66;4932950;29;20050;-77
2022/11/05 11:15:51;;;;;;;8.70;3.70;;;;;;;13.15;59.48;97547.03;4916117;29;20039;-78
2022/11/05 11:18:36;;;;;;;6.78;3.95;;;;;;;13.31;60.50;97550.53;4917099;29;20042;-78
2022/11/05 11:21:16;;;;;;;7.93;4.27;;;;;;;13.10;60.16;97550.38;4933342;29;20058;-77
2022/11/05 11:23:42;;;;;;;6.93;4.32;;;;;;;12.99;60.85;97553.19;4916879;29;20043;-77
2022/11/05 11:26:10;;;;;;;8.52;4.75;;;;;;;13.07;61.71;97561.38;4962701;28;20085;-77
2022/11/05 11:28:43;;;;;;;5.90;4.10;;;;;;;13.29;59.82;97558.63;4932583;29;20118;-77
2022/11/05 11:31:21;;;;;;;6.70;4.18;;;;;;;13.32;59.74;97559.22;4933369;29;20123;-78
2022/11/05 11:33:50;;;;;;;8.73;4.60;;;;;;;13.34;60.73;97559.75;4947808;29;20562;-77
2022/11/05 11:36:18;;;;;;;8.45;5.55;;;;;;;13.20;61.30;97565.38;4947846;29;20502;-77
2022/11/05 11:38:43;;;;;;;11.18;5.40;;;;;;;13.09;60.46;97563.72;4945679;28;20024;-77
2022/11/05 11:41:27;;;;;;;9.52;5.47;;;;;;;13.24;60.00;97566.44;4938900;29;20087;-77
2022/11/05 11:44:08;;;;;;;11.20;7.15;;;;;;;13.19;61.76;97560.38;4948967;29;20039;-77
2022/11/05 11:46:34;;;;;;;8.82;5.82;;;;;;;13.24;60.67;97558.59;4939991;28;20035;-77
2022/11/05 11:48:59;;;;;;;7.70;5.40;;;;;;;13.21;61.06;97564.34;4948038;29;20031;-77
2022/11/05 11:51:36;;;;;;;9.60;6.22;;;;;;;13.15;61.28;97559.31;4980163;28;20514;-77
2022/11/05 11:54:03;;;;;;;7.22;5.55;;;;;;;13.23;60.65;97564.88;4949220;28;20070;-77
2022/11/05 11:56:29;;;;;;;10.25;6.13;;;;;;;13.17;60.82;97560.63;4949541;29;20039;-77
2022/11/05 11:59:02;;;;;;;10.43;6.65;;;;;;;13.16;61.79;97561.69;4932716;29;20050;-77
2022/11/05 12:01:36;;;;;;;10.63;6.82;;;;;;;13.05;61.42;97560.03;4948463;29;20143;-77
2022/11/05 12:04:18;;;;;;;11.82;7.07;;;;;;;13.23;60.65;97561.44;4948193;29;20078;-77
2022/11/05 12:07:02;;;;;;;11.95;7.40;;;;;;;13.13;60.52;97553.56;4949986;29;20492;-77
2022/11/05 12:09:48;;;;;;;10.05;7.55;;;;;;;13.19;61.03;97560.38;4979136;28;20027;-76
2022/11/05 12:12:15;;;;;;;12.65;7.05;;;;;;;13.10;61.43;97550.38;4949932;28;20043;-77
2022/11/05 12:14:56;;;;;;;12.63;7.95;;;;;;;13.10;61.90;97547.78;4947641;29;20512;-77
2022/11/05 12:17:40;;;;;;;12.18;7.80;;;;;;;13.06;61.54;97545.94;4948760;29;20031;-76
2022/11/05 12:20:30;;;;;;;10.52;7.22;;;;;;;13.32;61.23;97540.91;4948898;29;20040;-77
2022/11/05 12:23:04;;;;;;;11.73;7.40;;;;;;;13.35;61.02;97543.00;4974944;28;20047;-77
2022/11/05 12:25:45;;;;;;;13.93;8.65;;;;;;;13.10;61.27;97539.16;4952277;29;20487;-77
2022/11/05 12:28:48;;;;;;;13.65;8.35;;;;;;;13.04;61.07;97540.97;4951969;28;20031;-77